createdAt,value
2023-02-23T00:02:56.324Z,56.0
2023-02-23T00:08:02.410Z,56.0
2023-02-23T00:13:08.930Z,54.0
2023-02-23T00:18:14.824Z,52.0
2023-02-23T00:23:20.048Z,56.0
2023-02-23T00:28:26.250Z,55.0
2023-02-23T00:33:32.479Z,53.0
2023-02-23T00:38:38.695Z,54.0
2023-02-23T00:43:44.886Z,57.0
2023-02-23T00:48:51.093Z,58.5
2023-02-23T00:53:57.308Z,59.0
2023-02-23T00:59:03.509Z,64.0
2023-02-23T01:04:09.712Z,67.0
2023-02-23T01:09:15.931Z,69.0
2023-02-23T01:14:22.128Z,69.5
2023-02-23T01:19:28.329Z,70.0
2023-02-23T01:24:34.546Z,69.5
2023-02-23T01:29:39.773Z,72.0
2023-02-23T01:34:45.988Z,69.0
2023-02-23T01:39:51.219Z,68.0
2023-02-23T01:44:57.627Z,70.0
2023-02-23T01:50:03.632Z,65.0
2023-02-23T01:55:09.841Z,66.0
2023-02-23T02:00:16.046Z,65.0
2023-02-23T02:05:22.304Z,65.0
2023-02-23T02:10:28.467Z,64.0
2023-02-23T02:15:34.674Z,64.0
2023-02-23T02:20:40.882Z,65.5
2023-02-23T02:25:47.093Z,62.0
2023-02-23T02:30:53.355Z,66.0
2023-02-23T02:35:59.508Z,64.0
2023-02-23T02:41:05.732Z,65.0
2023-02-23T02:51:18.534Z,61.0
2023-02-23T02:56:24.338Z,64.0
2023-02-23T03:01:30.595Z,63.0
2023-02-23T03:06:36.757Z,64.5
2023-02-23T03:11:42.972Z,67.0
2023-02-23T03:16:49.169Z,65.0
2023-02-23T03:21:55.391Z,66.5
2023-02-23T03:27:01.598Z,67.0
2023-02-23T03:32:06.953Z,68.0
2023-02-23T03:37:13.020Z,67.0
2023-02-23T03:42:19.231Z,68.0
2023-02-23T03:47:25.463Z,69.0
2023-02-23T03:52:31.647Z,68.5
2023-02-23T03:57:37.852Z,69.5
2023-02-23T04:02:44.056Z,71.5
2023-02-23T04:07:50.281Z,69.5
2023-02-23T04:12:56.481Z,74.0
2023-02-23T04:18:02.696Z,71.0
2023-02-23T04:23:08.895Z,69.0
2023-02-23T04:28:15.105Z,73.0
2023-02-23T04:33:21.315Z,73.0
2023-02-23T04:38:27.525Z,68.0
2023-02-23T04:43:33.728Z,67.0
2023-02-23T04:48:39.934Z,73.0
2023-02-23T04:53:46.146Z,69.5
2023-02-23T04:58:52.354Z,70.0
2023-02-23T05:03:58.566Z,69.0
2023-02-23T05:09:04.765Z,71.5
2023-02-23T05:14:10.977Z,71.0
2023-02-23T05:19:16.207Z,70.0
2023-02-23T05:24:22.421Z,68.5
2023-02-23T05:29:27.661Z,68.0
2023-02-23T05:34:33.868Z,69.5
2023-02-23T05:39:39.091Z,67.5
2023-02-23T05:44:45.305Z,71.0
2023-02-23T05:49:51.517Z,67.0
2023-02-23T05:54:57.741Z,65.0
2023-02-23T06:00:03.922Z,69.0
2023-02-23T06:05:10.128Z,67.0
2023-02-23T06:10:16.353Z,64.0
2023-02-23T06:15:22.559Z,66.0
2023-02-23T06:20:28.753Z,66.5
2023-02-23T06:25:34.965Z,63.0
2023-02-23T06:30:41.242Z,69.5
2023-02-23T06:35:47.382Z,64.5
2023-02-23T06:40:53.593Z,64.0
2023-02-23T06:45:59.815Z,67.0
2023-02-23T06:51:06.014Z,66.0
2023-02-23T06:56:12.539Z,65.0
2023-02-23T07:01:18.644Z,66.0
2023-02-23T07:06:24.638Z,62.0
2023-02-23T07:11:30.834Z,66.0
2023-02-23T07:16:37.247Z,64.0
2023-02-23T07:21:43.247Z,62.0
2023-02-23T07:26:48.481Z,64.0
2023-02-23T07:31:54.882Z,64.0
2023-02-23T07:36:59.924Z,65.0
2023-02-23T07:42:06.130Z,64.0
2023-02-23T07:47:12.346Z,67.0
2023-02-23T07:52:18.552Z,65.0
2023-02-23T07:57:25.084Z,65.0
2023-02-23T08:02:30.965Z,67.0
2023-02-23T08:07:37.198Z,65.0
2023-02-23T08:12:43.444Z,62.0
2023-02-23T08:17:49.598Z,66.0
2023-02-23T08:22:55.797Z,64.0
2023-02-23T08:28:04.363Z,65.5
2023-02-23T08:33:08.232Z,63.0
2023-02-23T08:38:14.422Z,64.0
2023-02-23T08:43:20.793Z,61.0
2023-02-23T08:48:26.834Z,56.0
2023-02-23T08:53:33.045Z,56.0
2023-02-23T08:58:39.256Z,56.0
2023-02-23T09:03:45.457Z,57.0
2023-02-23T09:08:51.667Z,57.0
2023-02-23T09:13:57.869Z,57.0
2023-02-23T09:19:04.075Z,55.0
2023-02-23T09:24:09.389Z,58.0
2023-02-23T09:29:15.536Z,57.5
2023-02-23T09:34:20.756Z,53.0
2023-02-23T09:39:37.685Z,57.0
2023-02-23T09:44:33.180Z,54.0
2023-02-23T09:49:39.381Z,54.0
2023-02-23T09:54:45.587Z,54.0
2023-02-23T09:59:51.829Z,51.0
2023-02-23T10:04:58.122Z,49.5
2023-02-23T10:10:04.281Z,48.0
2023-02-23T10:15:10.425Z,49.0
2023-02-23T10:20:16.640Z,49.0
2023-02-23T10:25:22.848Z,50.0
2023-02-23T10:30:29.121Z,51.0
2023-02-23T10:35:35.278Z,50.0
2023-02-23T10:40:41.564Z,53.0
2023-02-23T10:45:47.669Z,53.0
2023-02-23T10:50:53.882Z,54.0
2023-02-23T10:56:00.092Z,52.0
2023-02-23T11:01:06.321Z,52.0
2023-02-23T11:06:12.504Z,53.0
2023-02-23T11:11:19.313Z,52.0
2023-02-23T11:16:25.484Z,53.5
2023-02-23T11:21:30.159Z,50.0
2023-02-23T11:26:36.384Z,46.0
2023-02-23T11:31:41.778Z,48.0
2023-02-23T11:36:47.799Z,48.0
2023-02-23T11:41:54.010Z,45.0
2023-02-23T11:47:00.317Z,40.0
2023-02-23T11:52:06.431Z,44.0
2023-02-23T11:57:12.647Z,43.0
2023-02-23T12:02:18.869Z,43.0
2023-02-23T12:07:25.057Z,40.5
2023-02-23T12:12:31.258Z,38.5
2023-02-23T12:17:37.479Z,40.0
2023-02-23T12:22:43.686Z,42.0
2023-02-23T12:27:49.901Z,39.0
2023-02-23T12:32:56.098Z,37.0
2023-02-23T12:38:02.306Z,33.0
2023-02-23T12:43:08.516Z,30.0
2023-02-23T12:48:14.715Z,31.0
2023-02-23T12:53:20.922Z,32.0
2023-02-23T12:58:27.176Z,31.0
2023-02-23T13:03:33.363Z,29.0
2023-02-23T13:08:39.554Z,29.0
2023-02-23T13:13:45.764Z,27.0
2023-02-23T13:18:50.999Z,25.5
2023-02-23T13:23:57.219Z,27.0
2023-02-23T13:29:02.444Z,24.0
2023-02-23T13:34:08.771Z,22.0
2023-02-23T13:39:18.959Z,24.0
2023-02-23T13:44:21.057Z,22.0
2023-02-23T13:49:27.347Z,21.0
2023-02-23T13:54:33.483Z,17.0
2023-02-23T13:59:39.720Z,15.0
2023-02-23T14:04:45.893Z,17.0
2023-02-23T14:09:52.098Z,15.0
2023-02-23T14:14:58.315Z,16.0
2023-02-23T14:20:06.496Z,14.0
2023-02-23T14:25:10.753Z,12.0
2023-02-23T14:30:16.945Z,11.0
2023-02-23T14:35:23.181Z,11.0
2023-02-23T14:40:29.354Z,12.0
2023-02-23T14:45:35.560Z,14.0
2023-02-23T14:50:41.762Z,16.0
2023-02-23T14:55:47.975Z,16.0
2023-02-23T15:00:54.185Z,14.0
2023-02-23T15:06:00.492Z,14.0
2023-02-23T15:11:06.602Z,13.0
2023-02-23T15:16:12.278Z,13.0
2023-02-23T15:21:18.489Z,14.0
2023-02-23T15:26:24.693Z,14.0
2023-02-23T15:31:29.573Z,13.0
2023-02-23T15:36:35.699Z,12.0
2023-02-23T15:41:41.905Z,12.0
2023-02-23T15:46:48.129Z,11.0
2023-02-23T15:51:54.327Z,10.0
2023-02-23T15:57:00.523Z,12.0
2023-02-23T16:02:06.738Z,11.0
2023-02-23T16:07:13.000Z,12.0
2023-02-23T16:12:19.157Z,12.5
2023-02-23T16:17:25.364Z,11.0
2023-02-23T16:22:31.569Z,13.0
2023-02-23T16:27:37.783Z,12.5
2023-02-23T16:32:44.206Z,13.0
2023-02-23T16:37:50.198Z,12.0
2023-02-23T16:42:56.396Z,12.0
2023-02-23T16:48:02.777Z,12.0
2023-02-23T16:53:08.825Z,13.0
2023-02-23T16:58:15.033Z,22.0
2023-02-23T17:03:21.252Z,21.0
2023-02-23T17:08:27.448Z,14.0
2023-02-23T17:13:32.681Z,14.0
2023-02-23T17:18:42.615Z,16.0
2023-02-23T17:23:44.123Z,27.0
2023-02-23T17:28:49.390Z,30.0
2023-02-23T17:33:55.557Z,22.0
2023-02-23T17:39:01.762Z,16.0
2023-02-23T17:44:07.971Z,133.0
2023-02-23T17:49:14.178Z,159.0
2023-02-23T17:54:20.395Z,188.5
2023-02-23T17:59:26.600Z,23.0
2023-02-23T18:04:32.818Z,20.0
2023-02-23T18:09:39.088Z,18.0
2023-02-23T18:14:45.222Z,18.0
2023-02-23T18:19:51.426Z,18.0
2023-02-23T18:24:58.227Z,21.0
2023-02-23T18:30:03.840Z,21.0
2023-02-23T18:35:10.056Z,12.0
2023-02-23T18:40:16.267Z,10.0
2023-02-23T18:45:22.470Z,10.0
2023-02-23T18:50:28.692Z,10.0
2023-02-23T18:55:34.884Z,12.0
2023-02-23T19:00:41.115Z,12.0
2023-02-23T19:05:47.443Z,12.0
2023-02-23T19:10:52.531Z,10.0
2023-02-23T19:15:58.779Z,13.0
2023-02-23T19:21:03.985Z,10.0
2023-02-23T19:26:10.374Z,13.0
2023-02-23T19:31:16.419Z,7.0
2023-02-23T19:36:22.602Z,9.0
2023-02-23T19:41:28.801Z,9.0
2023-02-23T19:46:35.093Z,9.0
2023-02-23T19:51:41.218Z,12.0
2023-02-23T19:56:47.435Z,13.0
2023-02-23T20:01:53.684Z,13.0
2023-02-23T20:06:59.853Z,13.0
2023-02-23T20:12:06.054Z,12.0
2023-02-23T20:17:12.333Z,10.0
2023-02-23T20:22:18.461Z,11.0
2023-02-23T20:27:24.686Z,10.0
2023-02-23T20:32:31.305Z,13.0
2023-02-23T20:37:37.095Z,13.0
2023-02-23T20:42:43.294Z,11.5
2023-02-23T20:47:49.508Z,14.0
2023-02-23T20:52:55.722Z,13.5
2023-02-23T20:58:01.919Z,11.5
2023-02-23T21:03:08.138Z,11.0
2023-02-23T21:08:13.376Z,14.5
2023-02-23T21:13:19.575Z,13.0
2023-02-23T21:18:24.820Z,15.0
2023-02-23T21:23:31.018Z,14.0
2023-02-23T21:28:37.277Z,13.0
2023-02-23T21:33:43.450Z,13.0
2023-02-23T21:38:49.647Z,11.0
2023-02-23T21:43:55.848Z,14.5
2023-02-23T21:49:02.187Z,15.5
2023-02-23T21:54:08.270Z,12.0
2023-02-23T21:59:14.492Z,13.5
2023-02-23T22:04:20.674Z,15.5
2023-02-23T22:09:26.886Z,12.0
2023-02-23T22:14:33.108Z,12.0
2023-02-23T22:19:39.310Z,14.5
2023-02-23T22:24:45.525Z,13.0
2023-02-23T22:29:51.734Z,14.0
2023-02-23T22:34:57.927Z,14.0
2023-02-23T22:40:04.144Z,12.5
2023-02-23T22:45:10.345Z,16.0
2023-02-23T22:50:16.561Z,14.0
2023-02-23T22:55:22.772Z,14.0
2023-02-23T23:00:29.284Z,14.0
2023-02-23T23:05:34.199Z,19.0
2023-02-23T23:10:40.408Z,15.0
2023-02-23T23:15:46.613Z,17.0
2023-02-23T23:20:51.853Z,15.0
2023-02-23T23:25:58.060Z,16.0
2023-02-23T23:31:04.288Z,13.0
2023-02-23T23:36:10.475Z,12.0
2023-02-23T23:41:16.717Z,13.0
2023-02-23T23:46:22.909Z,17.0
2023-02-23T23:51:29.097Z,17.0
2023-02-23T23:56:35.330Z,15.0
